Time;durP1;ratioP1;P1;durP2;ratioP2;P2;SDS_P1;SDS_P2;PMS_P1;PMS_P2;Temp;Humidity;BMP_temperature;BMP_pressure;BME280_temperature;BME280_humidity;BME280_pressure;Samples;Min_cycle;Max_cycle;Signal;HPM_P1;HPM_P2
2023/07/02 00:01:41;;;;;;;19.95;6.53;;;15.60;99.90;;;;;;5036496;28;20382;-72
2023/07/02 00:04:08;;;;;;;20.85;6.88;;;15.70;99.90;;;;;;5036068;28;20045;-72
2023/07/02 00:06:40;;;;;;;20.23;7.00;;;15.60;99.90;;;;;;5054163;28;20091;-73
2023/07/02 00:09:12;;;;;;;22.45;6.53;;;15.60;99.90;;;;;;5035337;28;20045;-71
2023/07/02 00:11:45;;;;;;;17.30;7.07;;;15.60;99.90;;;;;;5036101;28;20395;-70
2023/07/02 00:14:12;;;;;;;25.23;7.32;;;15.50;99.90;;;;;;5054558;28;20037;-71
2023/07/02 00:16:45;;;;;;;21.83;7.25;;;15.50;99.90;;;;;;5035320;28;20045;-70
2023/07/02 00:19:14;;;;;;;20.30;7.28;;;15.40;99.90;;;;;;5053223;28;20489;-70
2023/07/02 00:21:41;;;;;;;21.85;7.72;;;15.40;99.90;;;;;;5053813;28;20064;-71
2023/07/02 00:24:11;;;;;;;28.17;8.20;;;15.40;99.90;;;;;;5053463;28;20040;-71
2023/07/02 00:26:38;;;;;;;21.23;7.03;;;15.40;99.90;;;;;;5053596;28;20492;-71
2023/07/02 00:29:05;;;;;;;21.77;7.32;;;15.30;99.90;;;;;;5035524;28;20132;-71
2023/07/02 00:31:33;;;;;;;21.10;7.35;;;15.30;99.90;;;;;;5053115;28;20051;-71
2023/07/02 00:34:02;;;;;;;21.50;7.28;;;15.30;99.90;;;;;;5054040;28;20036;-71
2023/07/02 00:36:34;;;;;;;25.20;7.25;;;15.30;99.90;;;;;;5053892;28;20098;-71
2023/07/02 00:39:00;;;;;;;20.33;7.35;;;15.30;99.90;;;;;;5035022;28;20401;-71
2023/07/02 00:41:26;;;;;;;26.55;7.65;;;15.20;99.90;;;;;;5035820;28;20041;-71
2023/07/02 00:43:54;;;;;;;20.75;7.47;;;15.20;99.90;;;;;;5035183;28;20049;-72
2023/07/02 00:46:22;;;;;;;20.83;6.85;;;15.20;99.90;;;;;;5034419;28;20489;-71
2023/07/02 00:48:52;;;;;;;21.63;7.47;;;15.20;99.90;;;;;;5035327;28;20045;-72
2023/07/02 00:51:25;;;;;;;18.63;6.72;;;15.20;99.90;;;;;;5034970;28;20049;-71
2023/07/02 00:53:56;;;;;;;19.67;7.57;;;15.30;99.90;;;;;;5053582;28;20597;-71
2023/07/02 00:56:23;;;;;;;20.98;7.20;;;15.30;99.90;;;;;;5053282;28;20451;-71
2023/07/02 00:58:51;;;;;;;20.83;7.53;;;15.30;99.90;;;;;;5034421;28;20052;-71
2023/07/02 01:01:33;;;;;;;20.27;7.00;;;15.40;99.90;;;;;;5053522;28;20048;-71
2023/07/02 01:04:03;;;;;;;22.35;7.30;;;15.40;99.90;;;;;;5053616;28;20045;-71
2023/07/02 01:06:33;;;;;;;19.80;7.03;;;15.40;99.90;;;;;;5052622;28;20041;-71
2023/07/02 01:09:03;;;;;;;22.52;8.30;;;15.40;99.90;;;;;;5034942;28;20126;-72
2023/07/02 01:11:51;;;;;;;25.77;7.65;;;15.40;99.90;;;;;;5015904;28;20056;-71
2023/07/02 01:14:25;;;;;;;23.63;7.35;;;15.40;99.90;;;;;;5032780;28;20077;-71
2023/07/02 01:16:52;;;;;;;23.63;7.53;;;15.30;99.90;;;;;;5023880;28;20112;-72
2023/07/02 01:19:44;;;;;;;22.10;6.93;;;15.30;99.90;;;;;;5034499;28;20041;-71
2023/07/02 01:22:10;;;;;;;23.38;7.35;;;15.20;99.90;;;;;;5035382;28;20485;-71
2023/07/02 01:24:39;;;;;;;26.45;7.80;;;15.10;99.90;;;;;;5034687;28;20059;-71
2023/07/02 01:27:05;;;;;;;21.35;8.18;;;15.10;99.90;;;;;;5034612;28;20132;-71
2023/07/02 01:29:31;;;;;;;16.75;6.70;;;15.10;99.90;;;;;;5034492;28;20037;-72
2023/07/02 01:31:59;;;;;;;25.55;7.18;;;15.00;99.90;;;;;;5052559;28;20053;-72
2023/07/02 01:34:25;;;;;;;23.60;7.43;;;15.00;99.90;;;;;;5033670;28;20461;-72
2023/07/02 01:36:51;;;;;;;16.23;6.85;;;15.00;99.90;;;;;;5034665;28;20048;-72
2023/07/02 01:39:17;;;;;;;19.10;6.45;;;14.90;99.90;;;;;;5052332;28;20088;-72
2023/07/02 01:41:50;;;;;;;24.52;7.00;;;14.90;99.90;;;;;;5033775;28;20155;-72
2023/07/02 01:44:17;;;;;;;20.33;7.43;;;14.80;99.90;;;;;;5034648;28;20053;-71
2023/07/02 01:46:44;;;;;;;22.42;7.47;;;14.90;99.90;;;;;;5052588;28;20136;-72
2023/07/02 01:49:10;;;;;;;23.25;7.30;;;14.90;99.90;;;;;;5051879;28;20049;-72
2023/07/02 01:51:36;;;;;;;24.33;6.95;;;14.90;99.90;;;;;;5034034;28;20485;-72
2023/07/02 01:54:02;;;;;;;20.65;7.00;;;14.90;99.90;;;;;;5052028;28;20049;-72
2023/07/02 01:56:30;;;;;;;20.83;7.05;;;14.90;99.90;;;;;;5034007;28;20072;-72
2023/07/02 01:58:56;;;;;;;19.35;6.80;;;14.80;99.90;;;;;;5050694;28;20053;-71
2023/07/02 02:01:22;;;;;;;20.80;6.82;;;14.90;99.90;;;;;;5034787;28;20047;-72
2023/07/02 02:03:47;;;;;;;20.58;6.85;;;14.90;99.90;;;;;;5033492;28;20037;-72
2023/07/02 02:06:13;;;;;;;17.67;6.72;;;14.80;99.90;;;;;;5034896;28;20446;-71
2023/07/02 02:08:39;;;;;;;17.88;6.55;;;14.80;99.90;;;;;;5051390;28;20522;-72
2023/07/02 02:11:05;;;;;;;17.15;6.68;;;14.80;99.90;;;;;;5034075;28;20386;-72
2023/07/02 02:13:30;;;;;;;19.13;7.03;;;14.70;99.90;;;;;;5034371;28;20095;-72
2023/07/02 02:15:56;;;;;;;21.88;6.65;;;14.60;99.90;;;;;;5051481;28;20075;-72
2023/07/02 02:18:21;;;;;;;21.95;6.32;;;14.70;99.90;;;;;;5051990;28;20052;-72
2023/07/02 02:20:47;;;;;;;25.38;6.80;;;14.70;99.90;;;;;;5034281;28;20064;-71
2023/07/02 02:23:13;;;;;;;18.23;6.78;;;14.70;99.90;;;;;;5051650;28;20052;-71
2023/07/02 02:25:41;;;;;;;20.17;7.35;;;14.70;99.90;;;;;;5033587;28;20055;-72
2023/07/02 02:28:07;;;;;;;23.35;6.93;;;14.70;99.90;;;;;;5052267;28;20046;-71
2023/07/02 02:30:33;;;;;;;16.92;6.10;;;14.70;99.90;;;;;;5033527;28;20133;-72
2023/07/02 02:32:58;;;;;;;16.95;6.65;;;14.70;99.90;;;;;;5034412;28;20427;-71
2023/07/02 02:35:24;;;;;;;26.13;7.18;;;14.70;99.90;;;;;;5033862;28;20095;-71
2023/07/02 02:37:51;;;;;;;18.58;6.90;;;14.80;99.90;;;;;;5032685;28;20412;-71
2023/07/02 02:40:17;;;;;;;21.65;6.82;;;14.80;99.90;;;;;;5034021;28;20140;-70
2023/07/02 02:42:42;;;;;;;21.30;7.20;;;14.80;99.90;;;;;;5052127;28;20132;-71
2023/07/02 02:45:08;;;;;;;18.52;6.85;;;14.80;99.90;;;;;;5033279;28;20128;-70
2023/07/02 02:47:34;;;;;;;14.82;6.15;;;14.80;99.90;;;;;;5051710;28;20044;-71
2023/07/02 02:50:00;;;;;;;20.08;6.78;;;14.80;99.90;;;;;;5052225;28;20041;-71
2023/07/02 02:52:26;;;;;;;23.33;6.55;;;14.80;99.90;;;;;;5033194;28;20413;-72
2023/07/02 02:54:54;;;;;;;18.40;6.30;;;14.90;99.90;;;;;;5033655;28;20037;-72
2023/07/02 02:57:20;;;;;;;21.10;6.28;;;14.80;99.90;;;;;;5033952;28;20055;-71
2023/07/02 02:59:46;;;;;;;17.52;6.20;;;14.90;99.90;;;;;;5050791;28;20037;-71
2023/07/02 03:02:12;;;;;;;15.32;5.70;;;14.80;99.90;;;;;;5051593;28;20052;-71
2023/07/02 03:04:41;;;;;;;19.20;6.63;;;15.50;99.90;;;;;;5033492;28;20045;-72
2023/07/02 03:07:10;;;;;;;16.10;6.38;;;15.00;99.90;;;;;;5033285;28;20053;-71
2023/07/02 03:09:38;;;;;;;15.10;6.07;;;15.00;99.90;;;;;;5052411;28;20048;-72
2023/07/02 03:12:04;;;;;;;16.70;6.22;;;15.00;99.90;;;;;;5054752;28;20072;-72
2023/07/02 03:14:30;;;;;;;17.40;6.30;;;15.00;99.90;;;;;;5037593;28;20103;-71
2023/07/02 03:16:58;;;;;;;21.20;6.82;;;15.00;99.90;;;;;;5036840;28;20790;-72
2023/07/02 03:19:24;;;;;;;19.77;6.65;;;15.00;99.90;;;;;;5054286;28;20068;-71
2023/07/02 03:21:50;;;;;;;17.23;6.70;;;15.00;99.90;;;;;;5037068;28;20469;-71
2023/07/02 03:24:16;;;;;;;17.77;6.22;;;15.10;99.90;;;;;;5055277;28;20037;-72
2023/07/02 03:26:43;;;;;;;19.63;7.07;;;15.10;99.90;;;;;;5053663;28;20150;-71
2023/07/02 03:29:10;;;;;;;23.80;7.20;;;15.10;99.90;;;;;;5054720;28;20441;-72
2023/07/02 03:31:36;;;;;;;17.02;6.55;;;15.10;99.90;;;;;;5036748;28;20049;-72
2023/07/02 03:34:11;;;;;;;27.38;7.22;;;15.20;99.90;;;;;;5054518;28;20047;-71
2023/07/02 03:36:37;;;;;;;16.52;6.18;;;15.20;99.90;;;;;;5036219;28;20044;-72
2023/07/02 03:39:06;;;;;;;24.08;6.53;;;15.20;99.90;;;;;;5036574;28;20128;-71
2023/07/02 03:41:32;;;;;;;19.90;5.80;;;15.20;99.90;;;;;;5035970;28;20059;-72
2023/07/02 03:43:58;;;;;;;15.55;5.70;;;15.20;99.90;;;;;;5037028;28;20481;-72
2023/07/02 03:46:24;;;;;;;12.57;5.03;;;15.10;99.90;;;;;;5054974;28;20063;-71
2023/07/02 03:48:49;;;;;;;13.35;4.97;;;15.00;99.90;;;;;;5035755;28;20123;-72
2023/07/02 03:51:15;;;;;;;15.13;5.05;;;15.00;99.90;;;;;;5054109;28;20473;-72
2023/07/02 03:53:41;;;;;;;15.10;5.10;;;14.90;99.90;;;;;;5036511;28;20131;-72
2023/07/02 03:56:07;;;;;;;17.15;5.05;;;14.80;99.90;;;;;;5035838;28;20112;-71
2023/07/02 03:58:33;;;;;;;16.67;5.03;;;14.90;99.90;;;;;;5054035;28;20393;-71
2023/07/02 04:00:59;;;;;;;19.45;5.68;;;14.80;99.90;;;;;;5036149;28;20049;-71
2023/07/02 04:03:25;;;;;;;12.77;4.70;;;14.70;99.90;;;;;;5035994;28;20079;-71
2023/07/02 04:05:51;;;;;;;16.95;4.72;;;14.70;99.90;;;;;;5036371;28;20893;-71
2023/07/02 04:08:17;;;;;;;14.00;4.65;;;14.60;99.90;;;;;;5053484;28;20044;-71
2023/07/02 04:10:42;;;;;;;16.38;5.13;;;14.60;99.90;;;;;;5036048;28;20053;-71
2023/07/02 04:13:08;;;;;;;12.38;4.38;;;14.60;99.90;;;;;;5036586;28;20384;-71
2023/07/02 04:15:35;;;;;;;11.77;4.00;;;14.60;99.90;;;;;;5035411;28;20041;-71
2023/07/02 04:18:01;;;;;;;13.57;4.35;;;14.60;99.90;;;;;;5036096;28;20056;-71
2023/07/02 04:20:28;;;;;;;12.40;4.47;;;14.60;99.90;;;;;;5036048;28;20052;-71
2023/07/02 04:22:54;;;;;;;17.05;4.40;;;14.60;99.90;;;;;;5052482;28;20499;-71
2023/07/02 04:25:20;;;;;;;15.35;4.47;;;14.80;99.90;;;;;;5054239;28;20064;-71
2023/07/02 04:27:46;;;;;;;14.13;5.55;;;14.90;99.90;;;;;;5053095;28;20467;-72
2023/07/02 04:30:13;;;;;;;16.38;4.90;;;14.90;99.90;;;;;;5035549;28;20048;-71
2023/07/02 04:32:40;;;;;;;13.80;4.72;;;15.00;99.90;;;;;;5035941;28;20045;-71
2023/07/02 04:35:09;;;;;;;19.88;5.28;;;15.00;99.90;;;;;;5053903;28;20044;-71
2023/07/02 04:37:38;;;;;;;15.48;5.22;;;15.00;99.90;;;;;;5052279;28;20127;-72
2023/07/02 04:40:11;;;;;;;13.55;5.68;;;15.10;99.90;;;;;;5035212;28;20053;-71
2023/07/02 04:42:38;;;;;;;12.93;4.78;;;15.10;99.90;;;;;;5053202;28;20053;-71
2023/07/02 04:45:08;;;;;;;15.10;5.13;;;15.10;99.90;;;;;;5053119;28;20128;-71
2023/07/02 04:47:34;;;;;;;12.18;5.03;;;15.00;99.90;;;;;;5035575;28;20041;-71
2023/07/02 04:50:00;;;;;;;15.68;5.00;;;15.10;99.90;;;;;;5053573;28;20037;-71
2023/07/02 04:52:27;;;;;;;16.00;5.70;;;15.10;99.90;;;;;;5034977;28;20098;-71
2023/07/02 04:54:53;;;;;;;11.02;4.90;;;15.30;99.90;;;;;;5053014;28;20428;-71
2023/07/02 04:57:19;;;;;;;17.65;4.57;;;15.30;99.90;;;;;;5053171;28;20040;-71
2023/07/02 04:59:44;;;;;;;15.75;4.70;;;15.40;99.90;;;;;;5034947;28;20048;-71
2023/07/02 05:02:10;;;;;;;14.13;4.80;;;15.50;99.90;;;;;;5035154;28;20049;-71
2023/07/02 05:04:39;;;;;;;16.13;4.93;;;15.60;99.90;;;;;;5051782;28;20037;-71
2023/07/02 05:07:05;;;;;;;13.82;4.82;;;15.60;99.90;;;;;;5053374;28;20041;-71
2023/07/02 05:09:31;;;;;;;13.15;5.15;;;15.60;99.90;;;;;;5035278;28;20048;-72
2023/07/02 05:11:59;;;;;;;19.45;5.15;;;15.60;99.90;;;;;;5052547;28;20045;-71
2023/07/02 05:14:25;;;;;;;15.15;4.55;;;15.50;99.90;;;;;;5034904;28;20450;-71
2023/07/02 05:16:50;;;;;;;15.68;4.95;;;15.40;99.90;;;;;;5034458;28;20045;-71
2023/07/02 05:19:16;;;;;;;11.43;4.43;;;15.40;99.90;;;;;;5034654;28;20595;-71
2023/07/02 05:21:42;;;;;;;14.82;5.00;;;15.40;99.90;;;;;;5052742;28;20131;-71
2023/07/02 05:24:08;;;;;;;11.73;4.80;;;15.50;99.90;;;;;;5053005;28;20123;-71
2023/07/02 05:26:35;;;;;;;14.65;5.10;;;15.50;99.90;;;;;;5052103;28;20052;-71
2023/07/02 05:29:01;;;;;;;12.80;4.40;;;15.50;99.90;;;;;;5052701;28;20439;-71
2023/07/02 05:31:26;;;;;;;15.98;4.95;;;15.60;99.90;;;;;;5034594;28;20051;-71
2023/07/02 05:33:53;;;;;;;11.60;4.50;;;15.60;99.90;;;;;;5033444;28;20049;-71
2023/07/02 05:36:20;;;;;;;13.20;4.53;;;15.50;99.90;;;;;;5052426;28;20049;-71
2023/07/02 05:38:45;;;;;;;13.38;4.60;;;15.60;99.90;;;;;;5052401;28;20057;-71
2023/07/02 05:41:17;;;;;;;12.82;3.97;;;15.70;99.90;;;;;;5034127;28;20489;-71
2023/07/02 05:43:42;;;;;;;14.60;4.05;;;15.60;99.90;;;;;;5033855;28;20041;-71
2023/07/02 05:46:08;;;;;;;10.95;3.70;;;15.80;99.90;;;;;;5052417;28;20049;-71
2023/07/02 05:48:34;;;;;;;9.70;3.22;;;15.80;99.90;;;;;;5033868;28;20049;-72
2023/07/02 05:50:59;;;;;;;16.90;4.25;;;15.80;99.90;;;;;;5052749;28;20037;-71
2023/07/02 05:53:25;;;;;;;14.48;3.67;;;15.80;99.90;;;;;;5034633;28;20076;-71
2023/07/02 05:55:51;;;;;;;8.95;3.10;;;15.70;99.90;;;;;;5033587;28;20135;-71
2023/07/02 05:58:17;;;;;;;12.65;3.45;;;15.70;99.90;;;;;;5034308;28;20037;-71
2023/07/02 06:00:48;;;;;;;12.77;3.40;;;15.70;99.90;;;;;;5051538;28;20121;-71
2023/07/02 06:03:20;;;;;;;12.35;3.80;;;15.70;99.90;;;;;;5052186;28;20416;-72
2023/07/02 06:05:47;;;;;;;16.15;3.17;;;15.70;99.90;;;;;;5034309;28;20045;-71
2023/07/02 06:08:13;;;;;;;10.80;3.05;;;15.70;99.90;;;;;;5033905;28;20075;-71
2023/07/02 06:10:39;;;;;;;11.85;3.53;;;15.70;99.90;;;;;;5034641;28;20041;-71
2023/07/02 06:13:04;;;;;;;16.88;3.28;;;15.70;99.90;;;;;;5034237;28;20049;-71
2023/07/02 06:15:30;;;;;;;13.15;3.75;;;15.80;99.90;;;;;;5051154;28;20396;-72
2023/07/02 06:17:56;;;;;;;13.40;3.70;;;15.80;99.90;;;;;;5034171;28;20396;-72
2023/07/02 06:20:22;;;;;;;11.38;2.95;;;15.80;99.90;;;;;;5052400;28;20045;-71
2023/07/02 06:22:47;;;;;;;11.50;3.65;;;16.00;99.90;;;;;;5050978;28;20444;-72
2023/07/02 06:25:14;;;;;;;12.65;3.10;;;16.00;99.90;;;;;;5039316;28;20488;-71
2023/07/02 06:27:39;;;;;;;14.50;3.75;;;16.00;99.90;;;;;;5033431;28;20049;-72
2023/07/02 06:30:06;;;;;;;11.10;3.58;;;16.10;99.90;;;;;;5033433;28;20045;-71
2023/07/02 06:32:32;;;;;;;13.38;3.03;;;16.10;99.90;;;;;;5051925;28;20056;-71
2023/07/02 06:34:58;;;;;;;9.07;3.00;;;16.10;99.90;;;;;;5034100;28;20049;-70
2023/07/02 06:37:23;;;;;;;11.32;3.15;;;16.30;99.90;;;;;;5051144;28;20041;-71
2023/07/02 06:39:49;;;;;;;10.27;3.13;;;16.30;99.90;;;;;;5050585;28;20507;-71
2023/07/02 06:42:15;;;;;;;9.77;3.75;;;16.30;99.90;;;;;;5033896;28;20081;-70
2023/07/02 06:44:41;;;;;;;14.90;3.40;;;16.40;99.90;;;;;;5051660;28;20389;-72
2023/07/02 06:47:07;;;;;;;11.90;2.88;;;16.50;99.90;;;;;;5046801;28;20047;-70
2023/07/02 06:49:33;;;;;;;8.27;2.90;;;16.60;99.90;;;;;;5037042;28;20045;-71
2023/07/02 06:52:02;;;;;;;12.93;3.65;;;16.50;99.90;;;;;;5053323;28;20056;-71
2023/07/02 06:54:28;;;;;;;11.52;3.80;;;16.50;99.90;;;;;;5037337;28;20045;-71
2023/07/02 06:56:54;;;;;;;12.32;3.35;;;16.50;99.90;;;;;;5036732;28;20060;-71
2023/07/02 06:59:24;;;;;;;11.23;3.70;;;16.60;99.90;;;;;;5037468;28;20044;-71
2023/07/02 07:01:50;;;;;;;12.10;3.30;;;16.70;99.90;;;;;;5036856;28;20401;-71
2023/07/02 07:04:16;;;;;;;13.48;3.90;;;16.70;99.90;;;;;;5054484;28;20040;-71
2023/07/02 07:06:42;;;;;;;14.00;3.45;;;16.60;99.90;;;;;;5029909;28;20094;-71
2023/07/02 07:09:08;;;;;;;8.38;2.88;;;16.60;99.90;;;;;;5037880;28;20047;-71
2023/07/02 07:11:34;;;;;;;11.52;3.17;;;16.50;99.90;;;;;;5038642;28;20037;-71
2023/07/02 07:14:03;;;;;;;13.80;3.55;;;16.70;99.90;;;;;;5055923;28;20040;-71
2023/07/02 07:16:28;;;;;;;12.43;3.28;;;16.90;99.90;;;;;;5034978;28;20047;-72
2023/07/02 07:18:54;;;;;;;11.95;3.60;;;17.20;99.90;;;;;;5033817;28;20036;-71
2023/07/02 07:21:20;;;;;;;10.45;3.30;;;17.40;99.90;;;;;;5033876;28;20044;-71
2023/07/02 07:23:46;;;;;;;11.10;3.63;;;17.60;99.90;;;;;;5034556;28;20500;-71
2023/07/02 07:26:11;;;;;;;13.48;3.78;;;17.50;99.90;;;;;;5040759;28;20127;-72
2023/07/02 07:28:37;;;;;;;15.80;4.35;;;17.40;99.90;;;;;;5033290;28;20124;-71
2023/07/02 07:31:08;;;;;;;16.88;4.60;;;17.30;99.90;;;;;;5050859;28;20069;-72
2023/07/02 07:33:35;;;;;;;12.88;4.45;;;17.00;99.90;;;;;;5033358;28;20041;-71
2023/07/02 07:36:04;;;;;;;9.48;3.85;;;16.80;99.90;;;;;;5051034;28;20045;-72
2023/07/02 07:38:30;;;;;;;8.27;3.28;;;16.60;99.90;;;;;;5030793;28;20059;-72
2023/07/02 07:40:55;;;;;;;10.27;3.50;;;16.50;99.90;;;;;;5031777;28;20036;-71
2023/07/02 07:43:21;;;;;;;10.75;3.72;;;16.40;99.90;;;;;;5032954;28;20030;-71
2023/07/02 07:45:47;;;;;;;11.38;3.70;;;16.40;99.90;;;;;;5035574;28;20098;-72
2023/07/02 07:48:13;;;;;;;12.13;3.78;;;16.50;99.90;;;;;;5032640;28;20189;-71
2023/07/02 07:50:41;;;;;;;12.30;4.07;;;16.60;99.90;;;;;;5054399;28;20033;-71
2023/07/02 07:53:07;;;;;;;9.70;3.42;;;16.70;99.90;;;;;;5046948;28;20484;-71
2023/07/02 07:55:36;;;;;;;10.80;3.50;;;16.80;99.90;;;;;;5019058;28;20056;-72
2023/07/02 07:58:02;;;;;;;9.90;3.10;;;17.10;99.90;;;;;;5035235;28;20485;-71
2023/07/02 08:00:27;;;;;;;11.45;2.97;;;17.90;99.90;;;;;;5051083;28;20451;-73
2023/07/02 08:02:55;;;;;;;10.77;3.35;;;19.00;99.90;;;;;;5053958;28;20498;-71
2023/07/02 08:05:22;;;;;;;9.02;3.20;;;19.70;99.90;;;;;;5069091;28;20540;-73
2023/07/02 08:07:48;;;;;;;12.00;3.03;;;20.20;99.90;;;;;;5063576;28;20068;-73
2023/07/02 08:10:14;;;;;;;11.68;3.17;;;20.50;99.20;;;;;;5050698;28;20461;-73
2023/07/02 08:12:40;;;;;;;10.70;2.75;;;20.60;98.90;;;;;;5037883;28;20490;-71
2023/07/02 08:15:06;;;;;;;9.43;3.13;;;20.50;99.50;;;;;;5048696;28;20048;-73
2023/07/02 08:17:34;;;;;;;9.43;3.08;;;19.90;99.00;;;;;;5051295;28;20454;-73
2023/07/02 08:20:09;;;;;;;10.73;3.08;;;20.40;99.40;;;;;;5053452;28;20052;-71
2023/07/02 08:22:39;;;;;;;9.57;3.13;;;20.80;99.40;;;;;;5044193;28;20045;-74
2023/07/02 08:25:06;;;;;;;10.38;2.90;;;21.20;97.60;;;;;;5044492;28;20049;-73
2023/07/02 08:27:32;;;;;;;13.23;2.92;;;21.20;95.80;;;;;;5056167;28;20052;-72
2023/07/02 08:29:58;;;;;;;5.32;2.42;;;21.40;96.20;;;;;;5045615;28;20127;-75
2023/07/02 08:32:24;;;;;;;10.98;3.33;;;21.80;95.60;;;;;;5023358;28;20513;-74
2023/07/02 08:34:50;;;;;;;11.15;3.10;;;22.10;96.00;;;;;;5033427;28;20116;-74
2023/07/02 08:37:20;;;;;;;7.72;2.75;;;22.20;95.60;;;;;;5029161;28;20150;-75
2023/07/02 08:39:45;;;;;;;8.40;3.45;;;22.50;94.80;;;;;;5049328;28;20056;-74
2023/07/02 08:42:11;;;;;;;10.60;3.13;;;22.40;95.30;;;;;;5035702;28;20041;-73
2023/07/02 08:44:37;;;;;;;9.23;3.03;;;22.80;94.50;;;;;;5044920;28;20038;-76
2023/07/02 08:47:05;;;;;;;8.43;2.97;;;22.70;94.10;;;;;;5055700;28;20049;-73
2023/07/02 08:49:31;;;;;;;11.77;3.58;;;23.10;92.90;;;;;;5051811;28;20049;-73
2023/07/02 08:51:57;;;;;;;9.27;2.65;;;23.00;93.80;;;;;;5035583;28;20091;-73
2023/07/02 08:54:23;;;;;;;9.18;2.97;;;22.90;93.00;;;;;;5035644;28;20045;-76
2023/07/02 08:56:49;;;;;;;9.98;3.50;;;22.90;92.80;;;;;;5033482;28;20045;-75
2023/07/02 08:59:17;;;;;;;10.90;3.88;;;23.00;94.00;;;;;;5035265;28;20382;-76
2023/07/02 09:01:48;;;;;;;11.77;3.10;;;23.30;94.20;;;;;;5034916;28;20060;-78
2023/07/02 09:04:20;;;;;;;9.43;2.95;;;23.00;93.40;;;;;;5026094;28;20473;-79
2023/07/02 09:06:48;;;;;;;12.48;3.50;;;22.70;93.60;;;;;;5049453;28;20044;-80
2023/07/02 09:09:14;;;;;;;11.50;3.80;;;22.50;93.70;;;;;;5034799;28;20033;-77
2023/07/02 09:11:56;;;;;;;12.52;4.00;;;22.90;93.90;;;;;;5052222;28;20408;-79
2023/07/02 09:14:29;;;;;;;9.43;3.08;;;22.60;93.70;;;;;;5050718;28;20102;-76
2023/07/02 09:17:06;;;;;;;7.85;3.45;;;22.10;94.50;;;;;;5033133;28;20041;-82
2023/07/02 09:19:35;;;;;;;9.25;3.08;;;22.70;94.20;;;;;;5043566;28;20088;-80
2023/07/02 09:22:05;;;;;;;11.45;3.35;;;22.70;94.10;;;;;;5035909;28;20095;-79
2023/07/02 09:24:31;;;;;;;8.48;2.97;;;22.40;94.20;;;;;;5058298;28;20049;-78
2023/07/02 09:27:00;;;;;;;9.90;3.35;;;21.70;94.30;;;;;;5033565;28;20041;-79
2023/07/02 09:29:31;;;;;;;13.10;3.80;;;21.60;95.10;;;;;;5016160;28;20406;-76
2023/07/02 09:32:03;;;;;;;9.13;3.22;;;22.00;94.70;;;;;;5050174;28;20056;-76
2023/07/02 09:34:30;;;;;;;8.40;2.72;;;21.80;94.20;;;;;;5028355;28;20068;-74
2023/07/02 09:36:58;;;;;;;6.97;2.70;;;21.90;93.40;;;;;;5052664;28;20049;-74
2023/07/02 09:39:32;;;;;;;11.07;3.35;;;22.00;94.00;;;;;;5051178;28;20053;-75
2023/07/02 09:41:59;;;;;;;12.10;3.38;;;22.40;94.10;;;;;;5031768;28;20174;-78
2023/07/02 09:44:27;;;;;;;10.90;3.90;;;22.10;93.80;;;;;;5034948;28;20056;-74
2023/07/02 09:47:02;;;;;;;10.27;3.13;;;21.90;94.40;;;;;;5020495;28;20064;-74
2023/07/02 09:49:32;;;;;;;8.30;3.15;;;21.20;95.60;;;;;;5033064;28;20041;-77
2023/07/02 09:52:03;;;;;;;8.48;3.13;;;21.40;96.20;;;;;;5032703;28;20517;-73
2023/07/02 09:54:30;;;;;;;9.05;3.20;;;21.90;95.50;;;;;;5032231;28;20038;-73
2023/07/02 09:56:59;;;;;;;11.10;3.60;;;21.90;96.10;;;;;;5033500;28;20056;-73
2023/07/02 09:59:25;;;;;;;14.68;3.53;;;22.10;95.40;;;;;;5019087;28;20045;-74
2023/07/02 10:01:52;;;;;;;9.80;3.33;;;22.20;95.70;;;;;;5050433;28;20099;-74
2023/07/02 10:04:20;;;;;;;11.27;3.42;;;22.70;94.20;;;;;;5041615;28;20080;-71
2023/07/02 10:06:51;;;;;;;10.68;3.58;;;22.70;93.90;;;;;;5031016;28;20060;-78
2023/07/02 10:09:17;;;;;;;9.85;3.50;;;22.90;94.30;;;;;;5034235;28;20056;-71
2023/07/02 10:11:44;;;;;;;10.05;3.15;;;23.00;93.90;;;;;;5051143;28;20484;-74
2023/07/02 10:14:10;;;;;;;8.70;2.95;;;23.00;93.90;;;;;;5041942;28;20102;-69
2023/07/02 10:16:55;;;;;;;10.52;2.85;;;22.90;94.30;;;;;;5033778;28;20477;-74
2023/07/02 10:19:21;;;;;;;7.73;2.90;;;22.70;93.90;;;;;;5048322;28;20041;-76
2023/07/02 10:22:04;;;;;;;10.88;3.33;;;22.80;94.00;;;;;;5033754;28;20151;-76
2023/07/02 10:24:30;;;;;;;8.75;2.90;;;22.60;94.60;;;;;;5021549;28;20049;-75
2023/07/02 10:27:01;;;;;;;8.20;2.70;;;22.90;94.60;;;;;;5027744;28;20048;-74
2023/07/02 10:29:28;;;;;;;8.63;3.10;;;23.00;94.00;;;;;;5041248;28;20083;-74
2023/07/02 10:31:58;;;;;;;12.27;2.95;;;22.70;93.90;;;;;;5021193;28;20037;-74
2023/07/02 10:34:34;;;;;;;11.18;2.92;;;22.50;94.40;;;;;;5032435;28;20511;-80
2023/07/02 10:37:01;;;;;;;8.60;2.67;;;22.20;94.20;;;;;;5045248;28;20463;-77
2023/07/02 10:39:31;;;;;;;10.73;2.70;;;22.00;94.80;;;;;;5027374;28;20048;-72
2023/07/02 10:42:07;;;;;;;8.45;2.42;;;22.20;94.20;;;;;;5028107;28;20063;-73
2023/07/02 10:44:49;;;;;;;7.55;2.28;;;22.60;93.50;;;;;;5044005;28;20065;-70
2023/07/02 10:47:14;;;;;;;7.50;2.40;;;22.90;92.60;;;;;;5035359;28;20523;-72
2023/07/02 10:49:40;;;;;;;8.57;2.65;;;22.70;93.30;;;;;;5020100;28;20063;-76
2023/07/02 10:52:09;;;;;;;9.10;2.88;;;22.90;93.20;;;;;;5051758;28;20385;-76
2023/07/02 10:54:47;;;;;;;8.15;2.47;;;23.10;93.60;;;;;;5053743;28;20029;-72
2023/07/02 10:57:21;;;;;;;8.23;2.35;;;23.10;92.60;;;;;;5029526;28;20470;-69
2023/07/02 11:00:04;;;;;;;7.63;2.60;;;22.80;92.20;;;;;;5028050;28;20084;-71
2023/07/02 11:02:40;;;;;;;10.70;2.78;;;22.60;92.40;;;;;;5033850;28;20044;-72
2023/07/02 11:05:06;;;;;;;9.90;2.60;;;22.60;92.80;;;;;;5042423;28;20489;-78
2023/07/02 11:07:33;;;;;;;10.85;2.78;;;22.40;92.30;;;;;;5054536;28;20407;-74
2023/07/02 11:09:59;;;;;;;9.30;3.00;;;22.10;92.60;;;;;;5030473;28;20687;-72
2023/07/02 11:12:29;;;;;;;9.57;2.80;;;22.10;93.20;;;;;;5037306;28;20041;-75
2023/07/02 11:15:11;;;;;;;8.77;3.00;;;22.30;93.30;;;;;;5050927;28;20033;-74
2023/07/02 11:17:37;;;;;;;7.85;2.83;;;22.40;93.70;;;;;;5057202;28;20053;-72
2023/07/02 11:20:06;;;;;;;6.55;2.47;;;22.50;92.40;;;;;;5031783;28;20052;-84
2023/07/02 11:22:33;;;;;;;11.75;2.90;;;22.60;92.60;;;;;;5027050;28;20499;-72
2023/07/02 11:25:13;;;;;;;9.50;2.97;;;22.90;92.60;;;;;;5028850;28;20048;-74
2023/07/02 11:27:39;;;;;;;8.95;2.70;;;23.10;92.50;;;;;;5022147;28;20044;-72
2023/07/02 11:30:06;;;;;;;6.88;2.55;;;23.20;92.60;;;;;;5038987;28;20042;-75
2023/07/02 11:32:35;;;;;;;8.20;2.58;;;23.00;91.50;;;;;;5024997;28;20172;-80
2023/07/02 11:35:00;;;;;;;4.65;2.33;;;23.30;91.60;;;;;;5032092;28;20124;-80
2023/07/02 11:37:26;;;;;;;8.00;2.38;;;22.70;89.80;;;;;;5041074;28;20127;-74
2023/07/02 11:39:52;;;;;;;11.02;2.90;;;22.40;91.60;;;;;;5038592;28;20123;-79
2023/07/02 11:42:17;;;;;;;7.40;2.80;;;22.30;92.40;;;;;;5034807;28;20041;-81
2023/07/02 11:44:43;;;;;;;10.63;3.30;;;22.50;92.90;;;;;;5033159;28;20045;-75
2023/07/02 11:47:09;;;;;;;8.40;2.85;;;22.70;92.50;;;;;;5034231;28;20037;-78
2023/07/02 11:49:34;;;;;;;8.10;3.30;;;22.40;91.70;;;;;;5043824;28;20081;-73
2023/07/02 11:52:00;;;;;;;9.70;3.10;;;22.30;92.60;;;;;;5034303;28;20120;-76
2023/07/02 11:54:26;;;;;;;11.75;3.25;;;22.20;92.40;;;;;;5051830;28;20508;-75
2023/07/02 11:56:54;;;;;;;9.98;4.03;;;21.70;92.60;;;;;;5053576;28;20507;-71
2023/07/02 11:59:19;;;;;;;10.10;3.42;;;21.40;92.80;;;;;;5035179;28;20041;-75
2023/07/02 12:01:45;;;;;;;10.48;3.53;;;21.10;94.00;;;;;;5035843;28;20151;-75
2023/07/02 12:04:12;;;;;;;12.82;2.72;;;21.10;94.20;;;;;;5053153;28;20503;-73
2023/07/02 12:06:37;;;;;;;9.10;3.00;;;21.50;94.00;;;;;;5052741;28;20041;-74
2023/07/02 12:09:03;;;;;;;10.45;3.53;;;21.90;93.80;;;;;;5053668;28;20388;-71
2023/07/02 12:11:28;;;;;;;8.40;3.28;;;22.20;94.70;;;;;;5053469;28;20041;-73
2023/07/02 12:13:57;;;;;;;8.18;3.08;;;22.00;92.80;;;;;;5034402;28;20048;-76
2023/07/02 12:16:24;;;;;;;8.60;3.33;;;21.80;92.80;;;;;;5034853;28;20076;-71
2023/07/02 12:18:50;;;;;;;9.63;3.30;;;22.00;93.00;;;;;;5044093;28;20033;-70
2023/07/02 12:21:18;;;;;;;14.02;3.65;;;21.80;93.20;;;;;;5049863;28;20102;-73
2023/07/02 12:23:43;;;;;;;8.57;3.38;;;21.70;93.50;;;;;;5030932;28;20395;-75
2023/07/02 12:26:12;;;;;;;5.63;2.75;;;21.30;93.30;;;;;;5031209;28;20121;-77
2023/07/02 12:28:38;;;;;;;12.75;3.70;;;21.40;92.60;;;;;;5024239;28;20045;-77
2023/07/02 12:31:12;;;;;;;10.45;3.35;;;21.20;93.60;;;;;;5030658;28;20066;-75
2023/07/02 12:33:41;;;;;;;9.93;3.50;;;21.00;93.60;;;;;;5041579;28;20051;-78
2023/07/02 12:36:07;;;;;;;8.23;3.17;;;21.30;93.70;;;;;;5031823;28;20045;-80
2023/07/02 12:38:33;;;;;;;13.85;3.70;;;21.50;93.70;;;;;;5021564;28;20057;-77
2023/07/02 12:41:00;;;;;;;8.15;3.50;;;21.90;94.30;;;;;;5025279;28;20053;-76